Jeffersonville, Kentucky
Current Conditions -  °F | °C
As of 8:15 AM on Thursday 27 Nov 2014 (Local Time) from KIOB Reporting Station
Overcast Overcast  
Wind Chill: 23°   Ceiling: 7000
Heat Index: 30°   Visibility: 7mi
Dew Point: 28°   Wind: 7mph
Humidity: 93%   Direction: 320°NW
Pressure: 30.21"   Gusts: NA
Location:  37.97°N, 83.84°W
Report Text: KIOB 271315Z AUTO 32006KT 7SM SCT011 BKN070 OVC085 M01/M02 A3021 RMK AO2
Loading
Personal Weather Stations






























Interactive Weather Map New forecast layout! Learn more

10-Day Weather Forecast

Advertisements
Track Severe Weather on mobile